Time;durP1;ratioP1;P1;durP2;ratioP2;P2;SDS_P1;SDS_P2;PMS_P1;PMS_P2;Temp;Humidity;BMP_temperature;BMP_pressure;BME280_temperature;BME280_humidity;BME280_pressure;Samples;Min_cycle;Max_cycle;Signal;HPM_P1;HPM_P2
2023/12/18 00:01:47;;;;;;;8.35;3.90;;;;;;;0.64;81.56;94661.31;2047397;70;20229;-81
2023/12/18 00:04:15;;;;;;;7.63;3.58;;;;;;;0.63;81.72;94651.50;2052005;70;20178;-81
2023/12/18 00:06:40;;;;;;;9.07;3.55;;;;;;;0.74;81.82;94657.84;2051767;70;20158;-81
2023/12/18 00:09:06;;;;;;;5.75;2.88;;;;;;;0.71;83.04;94658.06;2046069;70;20237;-79
2023/12/18 00:11:32;;;;;;;6.35;3.05;;;;;;;0.73;82.04;94659.09;2047232;70;20159;-83
2023/12/18 00:14:01;;;;;;;12.52;4.80;;;;;;;0.67;82.62;94657.56;2051009;70;20233;-81
2023/12/18 00:16:27;;;;;;;17.90;7.05;;;;;;;0.64;82.21;94656.56;2048405;70;20170;-80
2023/12/18 00:18:52;;;;;;;11.73;5.18;;;;;;;0.61;81.87;94651.25;2048422;70;20150;-81
2023/12/18 00:21:18;;;;;;;13.02;4.63;;;;;;;0.72;81.74;94659.59;2047919;70;20146;-86
2023/12/18 00:23:43;;;;;;;9.48;4.40;;;;;;;0.71;81.36;94663.63;2049068;70;20166;-79
2023/12/18 00:26:09;;;;;;;10.15;4.68;;;;;;;0.64;80.94;94651.00;2051736;70;20142;-81
2023/12/18 00:28:35;;;;;;;9.30;4.32;;;;;;;0.62;80.70;94653.50;2049091;70;20226;-80
2023/12/18 00:31:00;;;;;;;9.45;4.20;;;;;;;0.51;80.97;94659.03;2052455;70;20530;-79
2023/12/18 00:33:26;;;;;;;8.70;4.50;;;;;;;0.41;80.52;94635.53;2051778;70;20174;-83
2023/12/18 00:35:52;;;;;;;8.48;3.75;;;;;;;0.54;80.94;94663.56;2049312;70;20178;-88
2023/12/18 00:38:18;;;;;;;9.43;4.18;;;;;;;0.50;80.95;94649.94;2049007;70;20170;-82
2023/12/18 00:40:43;;;;;;;13.25;5.40;;;;;;;0.44;80.71;94651.94;2049210;70;20234;-87
2023/12/18 00:43:09;;;;;;;12.57;5.50;;;;;;;0.46;80.63;94643.13;2048802;70;20147;-85
2023/12/18 00:45:34;;;;;;;19.35;7.45;;;;;;;0.19;81.35;94647.28;2048429;70;20150;-82
2023/12/18 00:48:00;;;;;;;14.00;6.00;;;;;;;0.33;81.00;94651.13;2048110;70;20137;-86
2023/12/18 00:50:26;;;;;;;9.55;4.43;;;;;;;0.33;80.96;94640.81;2048131;70;20149;-84
2023/12/18 00:52:52;;;;;;;20.40;8.35;;;;;;;0.07;82.81;94646.47;2045388;70;20155;-86
2023/12/18 00:55:18;;;;;;;11.57;5.25;;;;;;;0.35;83.06;94652.13;2048407;70;20130;-85
2023/12/18 00:57:44;;;;;;;13.48;5.05;;;;;;;0.49;82.16;94645.66;2048580;70;20183;-87
2023/12/18 01:00:11;;;;;;;6.50;3.42;;;;;;;0.47;82.77;94645.41;2048713;70;20237;-87
2023/12/18 01:02:36;;;;;;;7.05;3.67;;;;;;;0.55;81.78;94644.91;2048273;70;20683;-89
2023/12/18 01:05:05;;;;;;;7.78;3.25;;;;;;;0.45;81.85;94641.59;2048024;70;20237;-87
2023/12/18 01:07:31;;;;;;;7.78;3.45;;;;;;;0.47;82.21;94641.88;2047971;70;20154;-87
2023/12/18 01:09:58;;;;;;;11.00;5.53;;;;;;;0.44;82.17;94653.94;2048434;70;20165;-88
2023/12/18 01:12:25;;;;;;;13.02;5.40;;;;;;;0.29;83.01;94653.38;2048718;70;20182;-89
2023/12/18 01:14:52;;;;;;;9.18;4.95;;;;;;;0.34;82.70;94652.66;2048220;70;20150;-85
2023/12/18 01:17:18;;;;;;;7.53;4.13;;;;;;;0.46;82.08;94645.91;2047690;70;20205;-85
2023/12/18 01:19:43;;;;;;;7.57;3.45;;;;;;;0.50;81.45;94644.41;2048426;70;20352;-84
2023/12/18 01:22:09;;;;;;;6.43;3.35;;;;;;;0.50;82.22;94644.41;2048171;70;20617;-86
2023/12/18 01:24:35;;;;;;;7.45;2.88;;;;;;;0.58;81.78;94646.69;2047988;70;20142;-85
2023/12/18 01:27:01;;;;;;;7.05;2.78;;;;;;;0.59;81.24;94646.19;2048004;70;20211;-87
2023/12/18 01:29:27;;;;;;;5.57;3.55;;;;;;;0.41;81.97;94652.94;2048188;70;20171;-86
2023/12/18 01:31:53;;;;;;;8.13;3.70;;;;;;;0.35;82.37;94643.81;2047642;70;20151;-88
2023/12/18 01:34:18;;;;;;;6.15;3.08;;;;;;;0.47;81.61;94642.63;2049196;70;20154;-86
2023/12/18 01:36:45;;;;;;;5.63;2.85;;;;;;;0.36;81.92;94644.59;2045444;70;20158;-86
2023/12/18 01:39:11;;;;;;;4.63;2.80;;;;;;;0.29;82.99;94651.38;2045412;70;20166;-86
2023/12/18 01:41:37;;;;;;;6.05;3.00;;;;;;;0.28;81.39;94638.03;2049039;70;20515;-87
2023/12/18 01:44:02;;;;;;;4.90;2.90;;;;;;;0.21;81.32;94645.53;2049004;70;20154;-88
2023/12/18 01:46:29;;;;;;;5.95;3.53;;;;;;;0.17;81.58;94644.25;2049431;70;20139;-89
2023/12/18 01:48:55;;;;;;;6.88;3.80;;;;;;;0.09;81.31;94640.41;2049506;70;20141;-86
2023/12/18 01:51:22;;;;;;;7.13;3.83;;;;;;;0.12;80.41;94650.53;2049539;70;20170;-88
2023/12/18 01:53:52;;;;;;;6.40;4.10;;;;;;;0.01;81.49;94639.38;2049470;70;20500;-84
2023/12/18 01:56:22;;;;;;;6.75;4.13;;;;;;;-0.10;81.44;94626.97;2049423;70;20677;-83
2023/12/18 01:58:48;;;;;;;6.13;3.50;;;;;;;0.06;82.27;94638.66;2048405;70;20173;-83
2023/12/18 02:01:15;;;;;;;5.97;3.17;;;;;;;0.04;81.71;94641.91;2049096;70;20150;-84
2023/12/18 02:03:41;;;;;;;8.25;2.97;;;;;;;0.17;81.30;94641.47;2049112;70;20148;-88
2023/12/18 02:06:08;;;;;;;5.25;3.00;;;;;;;-0.04;82.02;94632.56;2048526;70;20150;-86
2023/12/18 02:08:35;;;;;;;6.93;4.70;;;;;;;0.03;82.43;94634.09;2048850;70;20617;-87
2023/12/18 02:11:02;;;;;;;7.35;3.83;;;;;;;0.06;82.23;94644.97;2044944;70;20654;-85
2023/12/18 02:13:28;;;;;;;4.63;3.00;;;;;;;0.05;81.56;94634.38;2047919;70;20135;-86
2023/12/18 02:15:56;;;;;;;5.68;2.67;;;;;;;0.02;81.68;94630.56;2050802;70;20154;-85
2023/12/18 02:18:22;;;;;;;4.82;2.60;;;;;;;0.11;81.67;94630.38;2043546;70;20609;-86
2023/12/18 02:20:48;;;;;;;4.75;2.80;;;;;;;0.01;81.87;94622.78;2048628;70;20157;-89
2023/12/18 02:23:15;;;;;;;5.32;2.97;;;;;;;-0.08;82.53;94615.44;2049341;70;20147;-83
2023/12/18 02:25:41;;;;;;;5.18;2.55;;;;;;;0.08;82.44;94614.75;2049232;70;20154;-83
2023/12/18 02:28:09;;;;;;;5.05;2.63;;;;;;;0.11;81.93;94615.78;2048749;70;20159;-83
2023/12/18 02:30:34;;;;;;;6.10;3.40;;;;;;;0.11;82.61;94613.75;2048709;70;20185;-83
2023/12/18 02:33:00;;;;;;;4.20;2.72;;;;;;;0.14;81.33;94620.31;2048965;70;20249;-89
2023/12/18 02:35:26;;;;;;;5.45;2.65;;;;;;;0.12;81.42;94612.50;2049465;70;20179;-83
2023/12/18 02:37:52;;;;;;;6.40;2.60;;;;;;;0.01;82.73;94604.16;2049190;70;20234;-83
2023/12/18 02:40:18;;;;;;;7.65;2.75;;;;;;;0.13;82.61;94608.47;2049067;70;20147;-84
2023/12/18 02:42:43;;;;;;;5.50;2.58;;;;;;;0.15;81.77;94607.97;2048574;70;20155;-82
2023/12/18 02:45:10;;;;;;;5.75;2.78;;;;;;;-0.01;81.93;94588.00;2048568;70;20529;-82
2023/12/18 02:47:35;;;;;;;4.65;2.65;;;;;;;0.07;81.69;94606.94;2047660;70;20196;-86
2023/12/18 02:50:01;;;;;;;3.47;2.33;;;;;;;0.07;81.31;94616.00;2047724;70;20647;-85
2023/12/18 02:52:27;;;;;;;3.97;2.40;;;;;;;0.10;81.26;94620.56;2048386;70;20186;-85
2023/12/18 02:54:52;;;;;;;3.97;2.40;;;;;;;-0.01;81.20;94592.78;2048236;70;20146;-83
2023/12/18 02:57:18;;;;;;;3.75;2.22;;;;;;;-0.14;81.74;94617.38;2047742;70;20146;-83
2023/12/18 02:59:44;;;;;;;3.95;2.45;;;;;;;-0.24;82.74;94610.53;2048536;70;20229;-85
2023/12/18 03:02:11;;;;;;;4.53;2.70;;;;;;;-0.10;83.61;94604.06;2048125;70;20150;-86
2023/12/18 03:04:42;;;;;;;3.67;2.45;;;;;;;-0.06;83.63;94596.28;2048984;70;20396;-82
2023/12/18 03:07:09;;;;;;;3.93;2.27;;;;;;;0.09;82.54;94604.41;2048953;70;20153;-82
2023/12/18 03:09:36;;;;;;;6.13;2.50;;;;;;;0.03;81.92;94598.09;2048903;70;20150;-83
2023/12/18 03:12:01;;;;;;;4.88;2.55;;;;;;;0.06;82.22;94602.66;2049792;70;20182;-85
2023/12/18 03:14:27;;;;;;;4.95;2.78;;;;;;;0.07;81.82;94582.00;2048888;70;20242;-85
2023/12/18 03:16:53;;;;;;;3.97;2.50;;;;;;;-0.05;81.93;94581.19;2048370;70;20143;-83
2023/12/18 03:19:21;;;;;;;4.38;2.47;;;;;;;-0.14;82.04;94582.16;2048522;70;20150;-84
2023/12/18 03:21:47;;;;;;;4.20;2.30;;;;;;;-0.34;82.46;94582.28;2049117;70;20150;-85
2023/12/18 03:24:12;;;;;;;6.00;2.67;;;;;;;-0.10;83.09;94582.69;2048327;70;20147;-88
2023/12/18 03:26:41;;;;;;;6.35;3.05;;;;;;;-0.11;82.78;94586.69;2048368;70;20602;-84
2023/12/18 03:29:07;;;;;;;3.05;2.30;;;;;;;-0.09;82.28;94584.22;2049176;70;20205;-87
2023/12/18 03:31:34;;;;;;;3.92;2.30;;;;;;;-0.06;81.55;94582.44;2048755;70;20147;-85
2023/12/18 03:34:04;;;;;;;3.53;2.40;;;;;;;-0.37;82.70;94591.59;2048765;70;20591;-84
2023/12/18 03:36:30;;;;;;;3.60;2.25;;;;;;;-0.16;82.41;94583.91;2048657;70;20599;-86
2023/12/18 03:38:56;;;;;;;4.22;2.22;;;;;;;-0.28;83.54;94583.84;2048491;70;20603;-83
2023/12/18 03:41:22;;;;;;;4.20;2.63;;;;;;;-0.54;83.87;94585.97;2048647;70;20150;-85
2023/12/18 03:43:47;;;;;;;4.15;2.53;;;;;;;-0.33;82.95;94587.34;2048494;70;20174;-84
2023/12/18 03:46:13;;;;;;;4.95;2.72;;;;;;;-0.32;82.54;94588.88;2045581;70;20143;-83
2023/12/18 03:48:39;;;;;;;7.07;2.28;;;;;;;-0.30;81.60;94572.50;2048615;70;20203;-83
2023/12/18 03:51:05;;;;;;;5.03;2.60;;;;;;;-0.29;82.39;94582.31;2044956;70;20154;-86
2023/12/18 03:53:31;;;;;;;3.55;1.95;;;;;;;-0.14;82.74;94590.44;2048094;70;20172;-86
2023/12/18 03:55:56;;;;;;;4.15;2.60;;;;;;;-0.20;82.45;94586.91;2048083;70;20543;-84
2023/12/18 03:58:22;;;;;;;6.15;2.55;;;;;;;-0.54;82.92;94594.25;2048082;70;20213;-84
2023/12/18 04:00:48;;;;;;;11.70;6.40;;;;;;;-0.54;85.26;94592.25;2048013;70;20165;-83
2023/12/18 04:03:13;;;;;;;6.65;3.53;;;;;;;-0.37;83.41;94588.81;2047943;70;20233;-86
2023/12/18 04:05:39;;;;;;;6.38;3.00;;;;;;;-0.28;82.58;94596.91;2047635;70;20182;-85
2023/12/18 04:08:05;;;;;;;5.50;3.22;;;;;;;-0.30;82.17;94593.91;2048078;70;20143;-83
2023/12/18 04:10:30;;;;;;;6.13;3.28;;;;;;;-0.23;81.68;94587.13;2047988;70;20181;-83
2023/12/18 04:12:57;;;;;;;7.90;3.05;;;;;;;-0.27;81.65;94585.38;2048269;70;20233;-84
2023/12/18 04:15:24;;;;;;;4.30;2.70;;;;;;;-0.21;81.81;94581.88;2048042;70;20143;-86
2023/12/18 04:17:50;;;;;;;4.35;2.60;;;;;;;-0.53;82.88;94588.22;2047857;70;20162;-81
2023/12/18 04:20:16;;;;;;;6.22;2.88;;;;;;;-0.37;82.00;94583.28;2047865;70;20541;-83
2023/12/18 04:22:43;;;;;;;7.05;3.05;;;;;;;-0.52;81.48;94592.50;2047537;70;20143;-85
2023/12/18 04:25:09;;;;;;;7.97;2.80;;;;;;;-0.56;82.17;94582.91;2048075;70;20150;-87
2023/12/18 04:27:34;;;;;;;6.40;2.80;;;;;;;-0.41;81.24;94588.28;2048122;70;20170;-85
2023/12/18 04:30:00;;;;;;;4.85;2.90;;;;;;;-0.39;81.29;94591.31;2047988;70;20150;-85
2023/12/18 04:32:27;;;;;;;4.20;2.88;;;;;;;-0.36;80.75;94601.41;2048104;70;20534;-84
2023/12/18 04:34:52;;;;;;;7.18;2.90;;;;;;;-0.34;81.10;94605.19;2048331;70;20591;-84
2023/12/18 04:37:18;;;;;;;5.47;2.83;;;;;;;-0.42;80.64;94595.81;2049248;70;20193;-85
2023/12/18 04:39:44;;;;;;;4.65;2.53;;;;;;;-0.47;80.54;94606.88;2048958;70;20162;-84
2023/12/18 04:42:09;;;;;;;4.32;2.83;;;;;;;-0.50;80.83;94597.56;2050017;70;20218;-83
2023/12/18 04:44:36;;;;;;;5.22;2.50;;;;;;;-0.45;81.01;94599.59;2048956;70;20149;-82
2023/12/18 04:47:01;;;;;;;7.20;3.55;;;;;;;-0.31;82.07;94600.69;2048773;70;20154;-82
2023/12/18 04:49:28;;;;;;;3.75;2.90;;;;;;;-0.31;81.88;94600.69;2048727;70;20524;-83
2023/12/18 04:51:54;;;;;;;3.90;3.00;;;;;;;-0.37;81.77;94594.34;2049740;70;20158;-81
2023/12/18 04:54:20;;;;;;;4.22;2.78;;;;;;;-0.39;81.31;94599.63;2049411;70;20142;-82
2023/12/18 04:56:46;;;;;;;5.60;2.97;;;;;;;-0.59;82.36;94598.50;2048825;70;20143;-86
2023/12/18 04:59:13;;;;;;;4.88;2.60;;;;;;;-0.50;81.20;94603.09;2050971;70;20161;-89
2023/12/18 05:01:39;;;;;;;5.45;2.72;;;;;;;-0.44;81.01;94601.13;2051527;70;20130;-83
2023/12/18 05:04:05;;;;;;;4.78;2.83;;;;;;;-0.55;80.87;94606.56;2052598;70;20257;-85
2023/12/18 05:06:30;;;;;;;4.35;3.00;;;;;;;-0.82;83.39;94616.19;2052357;70;20164;-83
2023/12/18 05:08:57;;;;;;;4.78;3.08;;;;;;;-0.68;82.55;94618.03;2049445;70;20645;-87
2023/12/18 05:11:24;;;;;;;6.32;2.80;;;;;;;-0.53;81.97;94617.91;2051665;70;20150;-87
2023/12/18 05:13:51;;;;;;;14.50;5.80;;;;;;;-0.58;83.44;94619.38;2052487;70;20154;-81
2023/12/18 05:16:21;;;;;;;10.75;4.45;;;;;;;-0.60;83.98;94618.34;2051118;70;20178;-81
2023/12/18 05:18:47;;;;;;;9.07;4.13;;;;;;;-0.54;83.29;94621.94;2052101;70;20150;-83
2023/12/18 05:21:13;;;;;;;12.93;4.70;;;;;;;-0.52;82.57;94608.34;2047835;70;20169;-86
2023/12/18 05:23:39;;;;;;;10.18;4.53;;;;;;;-0.42;82.18;94617.97;2048050;70;20145;-84
2023/12/18 05:26:05;;;;;;;12.90;5.88;;;;;;;-0.44;82.34;94616.97;2047530;70;20701;-82
2023/12/18 05:28:31;;;;;;;14.55;5.85;;;;;;;-0.56;82.00;94619.63;2048107;70;20142;-84
2023/12/18 05:30:58;;;;;;;12.65;5.80;;;;;;;-0.94;82.06;94618.06;2048676;70;20192;-89
2023/12/18 05:33:25;;;;;;;9.45;4.75;;;;;;;-0.57;82.78;94618.13;2048393;70;20190;-88
2023/12/18 05:35:52;;;;;;;9.57;4.65;;;;;;;-0.43;82.87;94613.69;2047343;70;20142;-86
2023/12/18 05:38:17;;;;;;;10.75;4.65;;;;;;;-0.45;82.21;94610.66;2048059;70;20206;-86
2023/12/18 05:40:43;;;;;;;8.30;4.53;;;;;;;-0.39;82.17;94607.94;2047052;70;20225;-82
2023/12/18 05:43:10;;;;;;;6.40;3.42;;;;;;;-0.40;81.75;94620.25;2047511;70;20154;-83
2023/12/18 05:45:39;;;;;;;8.15;3.67;;;;;;;-0.41;83.27;94619.50;2048630;70;20151;-84
2023/12/18 05:48:05;;;;;;;10.85;6.18;;;;;;;-0.61;84.83;94627.91;2047467;70;20161;-81
2023/12/18 05:50:32;;;;;;;9.73;5.53;;;;;;;-0.46;82.90;94624.97;2048617;70;20159;-83
2023/12/18 05:52:57;;;;;;;12.65;6.40;;;;;;;-0.53;82.80;94626.97;2048273;70;20214;-84
2023/12/18 05:55:23;;;;;;;12.65;6.97;;;;;;;-0.46;81.81;94627.75;2049774;70;20155;-82
2023/12/18 05:57:49;;;;;;;11.88;6.30;;;;;;;-0.56;81.98;94613.34;2048412;70;20158;-81
2023/12/18 06:00:15;;;;;;;12.10;5.75;;;;;;;-0.62;82.50;94604.25;2049393;70;20134;-89
2023/12/18 06:02:43;;;;;;;10.13;5.55;;;;;;;-0.66;83.20;94614.78;2049460;70;20146;-89
2023/12/18 06:05:09;;;;;;;11.50;6.07;;;;;;;-0.60;82.37;94627.41;2050015;70;20171;-82
2023/12/18 06:07:34;;;;;;;12.00;6.85;;;;;;;-0.65;82.51;94621.81;2050018;70;20147;-84
2023/12/18 06:10:00;;;;;;;20.05;10.80;;;;;;;-0.57;81.66;94628.44;2049632;70;20154;-84
2023/12/18 06:12:26;;;;;;;17.85;9.27;;;;;;;-0.65;82.29;94621.81;2049624;70;20162;-89
2023/12/18 06:14:54;;;;;;;18.33;9.88;;;;;;;-0.70;82.34;94625.31;2048873;70;20511;-82
2023/12/18 06:17:21;;;;;;;20.52;9.90;;;;;;;-0.65;82.47;94630.88;2050121;70;20288;-88
2023/12/18 06:19:48;;;;;;;14.40;7.40;;;;;;;-0.70;82.24;94634.38;2051817;70;20563;-83
2023/12/18 06:22:19;;;;;;;14.50;7.13;;;;;;;-0.69;81.61;94627.56;2050090;70;20210;-89
2023/12/18 06:24:44;;;;;;;15.43;6.93;;;;;;;-0.74;82.05;94616.47;2049678;70;20567;-90
2023/12/18 06:27:11;;;;;;;12.10;6.65;;;;;;;-0.65;82.26;94628.13;2051659;70;20240;-85
2023/12/18 06:29:37;;;;;;;55.90;24.55;;;;;;;-0.61;81.83;94631.41;2048438;70;20147;-88
2023/12/18 06:32:03;;;;;;;30.73;13.15;;;;;;;-0.64;80.96;94629.66;2048131;70;20167;-89
2023/12/18 06:34:28;;;;;;;15.90;8.15;;;;;;;-0.92;81.29;94625.88;2048141;70;20633;-81
2023/12/18 06:36:54;;;;;;;13.35;6.97;;;;;;;-0.91;83.58;94627.41;2048537;70;20150;-84
2023/12/18 06:39:21;;;;;;;17.05;10.95;;;;;;;-0.73;83.15;94635.38;2050202;70;20139;-86
2023/12/18 06:41:48;;;;;;;21.05;13.48;;;;;;;-0.61;82.06;94636.19;2050753;70;20257;-85
2023/12/18 06:44:13;;;;;;;26.33;16.73;;;;;;;-0.55;82.25;94640.53;2051674;70;20250;-83
2023/12/18 06:46:41;;;;;;;28.02;17.60;;;;;;;-0.52;82.25;94641.56;2050262;70;20226;-87
2023/12/18 06:49:09;;;;;;;19.00;11.45;;;;;;;-0.58;83.25;94643.53;2048976;70;20174;-82
2023/12/18 06:51:35;;;;;;;18.15;10.32;;;;;;;-0.70;82.88;94644.66;2046346;70;20241;-84
2023/12/18 06:54:01;;;;;;;17.27;9.68;;;;;;;-0.54;82.39;94644.06;2047967;70;20360;-85
2023/12/18 06:56:27;;;;;;;23.77;13.13;;;;;;;-0.61;81.61;94650.03;2046801;70;20159;-89
2023/12/18 06:58:52;;;;;;;24.95;13.48;;;;;;;-0.56;82.06;94641.00;2049013;70;20157;-89
2023/12/18 07:01:18;;;;;;;22.38;12.70;;;;;;;-0.57;82.57;94656.09;2048342;70;20162;-89
2023/12/18 07:03:44;;;;;;;22.95;12.07;;;;;;;-0.55;81.64;94645.28;2048610;70;20147;-86
2023/12/18 07:06:10;;;;;;;18.38;10.57;;;;;;;-0.47;81.48;94643.59;2047528;70;20243;-85
2023/12/18 07:08:37;;;;;;;16.13;10.60;;;;;;;-0.48;81.08;94642.09;2048209;70;20250;-88
2023/12/18 07:11:04;;;;;;;14.68;9.63;;;;;;;-0.43;81.92;94641.38;2047658;70;20163;-89
2023/12/18 07:13:30;;;;;;;15.10;9.85;;;;;;;-0.33;81.13;94650.25;2045223;70;20253;-84
2023/12/18 07:15:55;;;;;;;61.10;27.48;;;;;;;-0.63;81.41;94650.53;2049648;70;20158;-89
2023/12/18 07:18:21;;;;;;;59.60;26.00;;;;;;;-0.49;81.97;94653.66;2049676;70;20150;-90
2023/12/18 07:20:48;;;;;;;36.20;17.95;;;;;;;-0.43;81.40;94646.91;2049368;70;20158;-85
2023/12/18 07:23:14;;;;;;;121.72;49.30;;;;;;;-0.57;81.70;94648.56;2048037;70;20166;-85
2023/12/18 07:25:41;;;;;;;231.40;103.07;;;;;;;-0.52;81.78;94649.84;2048097;70;20247;-84
2023/12/18 07:28:09;;;;;;;138.68;62.13;;;;;;;-0.44;81.93;94637.09;2048098;70;20148;-83
2023/12/18 07:30:39;;;;;;;228.88;100.07;;;;;;;-0.38;81.79;94639.88;2048534;70;20508;-83
2023/12/18 07:33:05;;;;;;;149.52;65.95;;;;;;;-0.37;81.43;94633.09;2045238;70;20234;-85
2023/12/18 07:35:32;;;;;;;146.02;59.15;;;;;;;-0.34;81.19;94643.19;2044997;70;20147;-82
2023/12/18 07:37:59;;;;;;;112.90;49.47;;;;;;;-0.27;81.24;94649.03;2045618;70;20253;-82
2023/12/18 07:40:25;;;;;;;95.53;45.58;;;;;;;-0.26;81.60;94644.25;2047902;70;20338;-84
2023/12/18 07:42:51;;;;;;;103.43;48.38;;;;;;;-0.29;81.71;94636.94;2047616;70;20168;-84
2023/12/18 07:45:18;;;;;;;116.40;52.30;;;;;;;-0.26;81.02;94641.50;2047608;70;20127;-83
2023/12/18 07:47:44;;;;;;;93.22;40.83;;;;;;;-0.19;81.37;94652.09;2048091;70;20146;-82
2023/12/18 07:50:12;;;;;;;78.22;36.47;;;;;;;-0.17;81.71;94654.38;2047753;70;20150;-83
2023/12/18 07:52:37;;;;;;;70.75;32.08;;;;;;;-0.15;81.12;94647.09;2047750;70;20205;-82
2023/12/18 07:55:03;;;;;;;69.68;31.02;;;;;;;-0.09;81.41;94647.13;2047254;70;20653;-83
2023/12/18 07:57:29;;;;;;;72.25;34.53;;;;;;;-0.02;82.23;94649.44;2048270;70;20178;-87
2023/12/18 07:59:55;;;;;;;60.03;30.35;;;;;;;0.04;81.39;94643.91;2047768;70;20146;-85
2023/12/18 08:02:21;;;;;;;61.47;29.90;;;;;;;-0.48;83.52;94642.09;2047531;70;20142;-83
2023/12/18 08:04:47;;;;;;;55.75;26.65;;;;;;;-0.06;82.60;94646.13;2047552;70;20598;-83
2023/12/18 08:07:15;;;;;;;46.80;22.88;;;;;;;-0.03;82.62;94639.63;2048385;70;20155;-83
2023/12/18 08:09:42;;;;;;;38.40;18.77;;;;;;;0.12;81.90;94640.19;2047642;70;20162;-83
2023/12/18 08:12:08;;;;;;;70.55;34.22;;;;;;;-0.29;82.35;94636.94;2048271;70;20154;-82
2023/12/18 08:14:34;;;;;;;65.47;32.25;;;;;;;-0.23;82.96;94645.25;2047890;70;20546;-87
2023/12/18 08:16:59;;;;;;;60.03;28.38;;;;;;;-0.02;81.47;94650.19;2046581;70;20151;-80
2023/12/18 08:19:26;;;;;;;53.40;25.95;;;;;;;0.08;81.79;94650.00;2047110;70;20604;-81
2023/12/18 08:21:53;;;;;;;59.53;28.30;;;;;;;0.01;82.07;94653.25;2047679;70;20234;-82
2023/12/18 08:24:21;;;;;;;57.78;27.83;;;;;;;-0.02;81.17;94643.91;2047417;70;20182;-85
2023/12/18 08:26:50;;;;;;;55.67;28.10;;;;;;;-0.08;81.87;94646.63;2048894;70;20154;-85
2023/12/18 08:29:15;;;;;;;62.03;29.58;;;;;;;0.11;81.24;94652.53;2047610;70;20163;-86
2023/12/18 08:31:42;;;;;;;71.18;33.33;;;;;;;0.07;81.51;94643.69;2047540;70;20162;-82
2023/12/18 08:34:08;;;;;;;74.63;33.83;;;;;;;0.11;81.71;94649.00;2048100;70;20246;-83
2023/12/18 08:36:34;;;;;;;65.75;31.60;;;;;;;0.20;81.42;94641.25;2047782;70;20207;-85
2023/12/18 08:39:08;;;;;;;51.78;25.40;;;;;;;0.27;82.12;94637.22;2046833;70;20197;-81
2023/12/18 08:41:36;;;;;;;53.38;28.08;;;;;;;0.28;82.51;94630.47;2047574;70;20130;-86
2023/12/18 08:44:02;;;;;;;53.80;27.77;;;;;;;0.36;81.95;94630.72;2047406;70;20151;-84
2023/12/18 08:46:28;;;;;;;51.15;27.00;;;;;;;0.33;81.95;94634.50;2048015;70;20271;-85
2023/12/18 08:48:55;;;;;;;57.67;27.10;;;;;;;0.40;81.72;94629.22;2048046;70;20238;-82
2023/12/18 08:51:21;;;;;;;48.53;25.58;;;;;;;0.51;81.44;94634.09;2047714;70;20597;-82
2023/12/18 08:53:46;;;;;;;50.17;25.15;;;;;;;0.56;81.83;94627.78;2047324;70;20629;-82
2023/12/18 08:56:12;;;;;;;43.58;22.92;;;;;;;1.07;82.07;94630.69;2047893;70;20139;-83
2023/12/18 08:58:40;;;;;;;54.63;28.67;;;;;;;1.37;82.25;94625.41;2047816;70;20155;-82
2023/12/18 09:01:06;;;;;;;54.92;29.38;;;;;;;1.69;82.31;94628.66;2047793;70;20594;-82
2023/12/18 09:03:35;;;;;;;70.30;34.78;;;;;;;1.99;81.83;94632.44;2047873;70;20239;-81
2023/12/18 09:06:02;;;;;;;69.88;36.63;;;;;;;2.28;81.51;94614.41;2047945;70;20147;-82
2023/12/18 09:08:29;;;;;;;69.80;35.17;;;;;;;2.62;80.84;94625.41;2046963;70;20178;-80
2023/12/18 09:10:55;;;;;;;68.65;33.50;;;;;;;2.88;79.96;94627.78;2047241;70;20562;-80
2023/12/18 09:13:20;;;;;;;69.88;32.75;;;;;;;3.05;80.13;94622.88;2047873;70;20620;-80
2023/12/18 09:15:46;;;;;;;50.00;24.55;;;;;;;3.31;78.87;94624.50;2047907;70;20162;-82
2023/12/18 09:18:12;;;;;;;61.78;30.08;;;;;;;3.51;78.59;94620.56;2047686;70;20247;-81
2023/12/18 09:20:37;;;;;;;86.10;42.53;;;;;;;3.44;78.22;94621.13;2047602;70;20537;-81
2023/12/18 09:23:08;;;;;;;33.13;18.92;;;;;;;3.47;78.28;94620.06;2047166;70;20138;-81
2023/12/18 09:25:34;;;;;;;33.08;17.98;;;;;;;3.59;78.27;94613.16;2047561;70;20146;-81
2023/12/18 09:28:00;;;;;;;40.15;22.17;;;;;;;4.11;77.05;94616.97;2047294;70;20127;-81
2023/12/18 09:30:25;;;;;;;51.05;26.98;;;;;;;4.60;75.65;94614.91;2047370;70;20149;-81
2023/12/18 09:32:51;;;;;;;61.97;33.75;;;;;;;4.83;74.39;94616.13;2047646;70;20170;-81
2023/12/18 09:35:16;;;;;;;40.65;23.35;;;;;;;4.87;73.32;94610.25;2044387;70;20613;-81
2023/12/18 09:37:42;;;;;;;38.40;20.35;;;;;;;5.47;73.98;94612.69;2044213;70;20524;-81
2023/12/18 09:40:08;;;;;;;36.45;20.98;;;;;;;5.77;73.23;94606.91;2047642;70;20245;-80
2023/12/18 09:42:37;;;;;;;33.28;18.63;;;;;;;6.00;71.66;94595.34;2047527;70;20151;-82
2023/12/18 09:45:05;;;;;;;35.25;19.67;;;;;;;6.34;70.99;94584.28;2047670;70;20147;-79
2023/12/18 09:47:31;;;;;;;32.05;18.38;;;;;;;7.07;72.21;94594.00;2047004;70;20226;-80
2023/12/18 09:49:58;;;;;;;26.40;13.88;;;;;;;7.23;70.61;94584.47;2047469;70;20147;-81
2023/12/18 09:52:26;;;;;;;26.58;15.10;;;;;;;6.98;68.86;94588.84;2047534;70;20149;-82
2023/12/18 09:54:52;;;;;;;23.10;12.48;;;;;;;7.46;67.79;94575.53;2047764;70;20154;-83
2023/12/18 09:57:19;;;;;;;19.15;11.55;;;;;;;7.45;66.48;94574.78;2048129;70;20390;-82
2023/12/18 09:59:45;;;;;;;16.60;10.85;;;;;;;7.63;65.98;94581.50;2047526;70;20146;-83
2023/12/18 10:02:12;;;;;;;20.40;11.70;;;;;;;7.90;65.25;94574.44;2048090;70;20173;-82
2023/12/18 10:04:41;;;;;;;27.75;16.55;;;;;;;8.04;64.44;94569.50;2047709;70;20151;-81
2023/12/18 10:07:07;;;;;;;20.63;15.23;;;;;;;7.77;64.62;94576.56;2044607;70;20194;-83
2023/12/18 10:09:35;;;;;;;17.83;11.25;;;;;;;8.15;63.46;94574.06;2047816;70;20155;-83
2023/12/18 10:12:02;;;;;;;11.85;7.53;;;;;;;8.85;63.44;94565.53;2047550;70;20146;-83
2023/12/18 10:14:29;;;;;;;12.93;8.30;;;;;;;9.12;62.60;94551.97;2047476;70;20190;-82
2023/12/18 10:16:55;;;;;;;11.75;7.43;;;;;;;9.53;60.82;94563.47;2048133;70;20139;-82
2023/12/18 10:19:24;;;;;;;14.23;7.60;;;;;;;9.50;59.07;94542.88;2047959;70;20609;-80
2023/12/18 10:21:49;;;;;;;15.13;7.95;;;;;;;10.00;59.09;94542.53;2048085;70;20591;-81
2023/12/18 10:24:15;;;;;;;12.15;8.48;;;;;;;10.10;57.80;94551.91;2047829;70;20148;-83
2023/12/18 10:26:41;;;;;;;13.93;9.80;;;;;;;10.72;57.04;94549.75;2047483;70;20238;-80
2023/12/18 10:29:07;;;;;;;18.73;9.35;;;;;;;10.94;56.26;94544.03;2048000;70;20221;-82
2023/12/18 10:31:34;;;;;;;12.75;9.70;;;;;;;10.72;54.30;94542.06;2047434;70;20138;-81
2023/12/18 10:34:05;;;;;;;17.67;10.65;;;;;;;10.87;55.51;94536.38;2048155;70;20147;-79
2023/12/18 10:36:35;;;;;;;13.52;8.82;;;;;;;11.48;53.78;94540.22;2047834;70;20167;-79
2023/12/18 10:39:05;;;;;;;14.55;10.02;;;;;;;12.71;52.19;94543.53;2047955;70;20150;-79
2023/12/18 10:41:36;;;;;;;15.35;9.20;;;;;;;13.82;50.25;94525.53;2047742;70;20135;-81
2023/12/18 10:44:03;;;;;;;15.63;9.88;;;;;;;13.84;49.25;94522.88;2048430;70;20612;-80
2023/12/18 10:46:28;;;;;;;12.93;9.02;;;;;;;14.03;49.03;94522.19;2047695;70;20165;-80
2023/12/18 10:48:56;;;;;;;13.68;8.70;;;;;;;14.09;47.87;94524.75;2048369;70;20146;-78
2023/12/18 10:51:22;;;;;;;12.15;8.52;;;;;;;13.68;46.96;94524.44;2048239;70;20162;-80
2023/12/18 10:53:48;;;;;;;9.13;6.78;;;;;;;14.56;46.96;94509.22;2048098;70;20170;-83
2023/12/18 10:56:18;;;;;;;15.77;7.28;;;;;;;14.97;44.83;94517.91;2048325;70;20177;-79
2023/12/18 10:58:48;;;;;;;12.35;7.40;;;;;;;16.47;43.27;94516.44;2047799;70;20154;-79
2023/12/18 11:01:15;;;;;;;19.80;6.95;;;;;;;18.09;41.43;94519.06;2047929;70;20201;-79
2023/12/18 11:03:41;;;;;;;10.60;7.00;;;;;;;17.62;41.98;94516.13;2048116;70;20217;-78
2023/12/18 11:06:09;;;;;;;13.32;6.38;;;;;;;15.02;42.24;94499.09;2047847;70;20203;-79
2023/12/18 11:08:35;;;;;;;11.73;6.93;;;;;;;12.80;44.48;94502.56;2047834;70;20609;-78
2023/12/18 11:11:04;;;;;;;10.13;5.30;;;;;;;12.16;46.89;94496.63;2048028;70;20146;-77
2023/12/18 11:13:44;;;;;;;12.20;6.10;;;;;;;11.34;48.39;94495.34;2047803;70;20186;-80
2023/12/18 11:16:31;;;;;;;10.77;7.28;;;;;;;10.73;50.35;94489.28;2048030;70;20522;-78
2023/12/18 11:19:18;;;;;;;12.10;6.80;;;;;;;10.53;51.40;94488.22;2048198;70;20146;-80
2023/12/18 11:21:47;;;;;;;15.77;7.55;;;;;;;10.14;52.53;94474.22;2047354;70;20158;-79
2023/12/18 11:24:13;;;;;;;11.65;7.18;;;;;;;9.99;53.33;94468.63;2048088;70;20142;-78
2023/12/18 11:26:41;;;;;;;11.45;6.47;;;;;;;9.49;53.00;94468.28;2048019;70;20146;-80